sensor_id;sensor_type;location;lat;lon;timestamp;temperature;humidity
8910;DHT22;4490;49.072;8.804;2022-09-09T00:02:26;16.00;92.20
8910;DHT22;4490;49.072;8.804;2022-09-09T00:07:53;16.00;92.40
8910;DHT22;4490;49.072;8.804;2022-09-09T00:13:11;16.10;92.50
8910;DHT22;4490;49.072;8.804;2022-09-09T00:15:57;16.20;92.80
8910;DHT22;4490;49.072;8.804;2022-09-09T00:18:39;16.20;92.80
8910;DHT22;4490;49.072;8.804;2022-09-09T00:21:13;16.20;93.10
8910;DHT22;4490;49.072;8.804;2022-09-09T00:23:46;16.20;93.30
8910;DHT22;4490;49.072;8.804;2022-09-09T00:31:38;16.30;93.80
8910;DHT22;4490;49.072;8.804;2022-09-09T00:34:13;16.30;93.90
8910;DHT22;4490;49.072;8.804;2022-09-09T00:36:41;16.30;94.10
8910;DHT22;4490;49.072;8.804;2022-09-09T00:42:10;16.30;94.60
8910;DHT22;4490;49.072;8.804;2022-09-09T00:44:38;16.30;95.00
8910;DHT22;4490;49.072;8.804;2022-09-09T00:57:59;16.40;95.60
8910;DHT22;4490;49.072;8.804;2022-09-09T01:00:31;16.40;95.80
8910;DHT22;4490;49.072;8.804;2022-09-09T01:11:16;16.50;96.20
8910;DHT22;4490;49.072;8.804;2022-09-09T01:13:45;16.50;96.30
8910;DHT22;4490;49.072;8.804;2022-09-09T01:16:13;16.50;96.50
8910;DHT22;4490;49.072;8.804;2022-09-09T01:18:44;16.50;96.50
8910;DHT22;4490;49.072;8.804;2022-09-09T01:21:35;16.50;96.50
8910;DHT22;4490;49.072;8.804;2022-09-09T01:24:20;16.60;96.40
8910;DHT22;4490;49.072;8.804;2022-09-09T01:26:49;16.50;96.40
8910;DHT22;4490;49.072;8.804;2022-09-09T01:29:18;16.50;96.50
8910;DHT22;4490;49.072;8.804;2022-09-09T01:31:57;16.50;96.50
8910;DHT22;4490;49.072;8.804;2022-09-09T01:34:25;16.50;96.50
8910;DHT22;4490;49.072;8.804;2022-09-09T01:37:08;16.50;96.40
8910;DHT22;4490;49.072;8.804;2022-09-09T01:39:36;16.60;96.20
8910;DHT22;4490;49.072;8.804;2022-09-09T01:42:04;16.60;95.80
8910;DHT22;4490;49.072;8.804;2022-09-09T01:44:33;16.70;95.60
8910;DHT22;4490;49.072;8.804;2022-09-09T01:46:59;16.70;95.20
8910;DHT22;4490;49.072;8.804;2022-09-09T01:49:25;16.80;94.90
8910;DHT22;4490;49.072;8.804;2022-09-09T01:51:54;16.90;94.40
8910;DHT22;4490;49.072;8.804;2022-09-09T01:54:22;16.90;94.00
8910;DHT22;4490;49.072;8.804;2022-09-09T01:57:17;17.00;93.70
8910;DHT22;4490;49.072;8.804;2022-09-09T02:02:27;17.20;92.90
8910;DHT22;4490;49.072;8.804;2022-09-09T02:07:46;17.30;92.70
8910;DHT22;4490;49.072;8.804;2022-09-09T02:10:19;17.30;92.70
8910;DHT22;4490;49.072;8.804;2022-09-09T02:13:01;17.40;92.70
8910;DHT22;4490;49.072;8.804;2022-09-09T02:15:36;17.40;92.40
8910;DHT22;4490;49.072;8.804;2022-09-09T02:18:08;17.40;92.50
8910;DHT22;4490;49.072;8.804;2022-09-09T02:20:38;17.50;92.80
8910;DHT22;4490;49.072;8.804;2022-09-09T02:23:05;17.40;92.90
8910;DHT22;4490;49.072;8.804;2022-09-09T02:25:35;17.40;93.10
8910;DHT22;4490;49.072;8.804;2022-09-09T02:28:04;17.40;93.40
8910;DHT22;4490;49.072;8.804;2022-09-09T02:30:32;17.40;93.60
8910;DHT22;4490;49.072;8.804;2022-09-09T02:33:01;17.40;93.60
8910;DHT22;4490;49.072;8.804;2022-09-09T02:35:29;17.40;93.60
8910;DHT22;4490;49.072;8.804;2022-09-09T02:37:59;17.40;93.70
8910;DHT22;4490;49.072;8.804;2022-09-09T02:40:26;17.40;93.80
8910;DHT22;4490;49.072;8.804;2022-09-09T02:42:54;17.40;93.70
8910;DHT22;4490;49.072;8.804;2022-09-09T02:45:24;17.40;93.80
8910;DHT22;4490;49.072;8.804;2022-09-09T02:48:21;17.40;93.80
8910;DHT22;4490;49.072;8.804;2022-09-09T02:51:19;17.40;93.80
8910;DHT22;4490;49.072;8.804;2022-09-09T02:56:42;17.30;93.90
8910;DHT22;4490;49.072;8.804;2022-09-09T02:59:11;17.30;94.10
8910;DHT22;4490;49.072;8.804;2022-09-09T03:01:37;17.20;94.20
8910;DHT22;4490;49.072;8.804;2022-09-09T03:04:05;17.20;94.50
8910;DHT22;4490;49.072;8.804;2022-09-09T03:06:31;17.20;94.90
8910;DHT22;4490;49.072;8.804;2022-09-09T03:08:57;17.20;95.30
8910;DHT22;4490;49.072;8.804;2022-09-09T03:11:26;17.10;95.50
8910;DHT22;4490;49.072;8.804;2022-09-09T03:13:53;17.10;95.70
8910;DHT22;4490;49.072;8.804;2022-09-09T03:16:22;17.00;95.90
8910;DHT22;4490;49.072;8.804;2022-09-09T03:18:47;17.00;96.20
8910;DHT22;4490;49.072;8.804;2022-09-09T03:21:13;17.00;96.30
8910;DHT22;4490;49.072;8.804;2022-09-09T03:23:39;17.00;96.40
8910;DHT22;4490;49.072;8.804;2022-09-09T03:26:05;17.00;96.40
8910;DHT22;4490;49.072;8.804;2022-09-09T03:28:31;17.00;96.50
8910;DHT22;4490;49.072;8.804;2022-09-09T03:31:01;17.00;96.70
8910;DHT22;4490;49.072;8.804;2022-09-09T03:33:27;16.90;96.90
8910;DHT22;4490;49.072;8.804;2022-09-09T03:35:53;16.90;97.00
8910;DHT22;4490;49.072;8.804;2022-09-09T03:38:25;16.80;97.10
8910;DHT22;4490;49.072;8.804;2022-09-09T03:40:52;16.80;97.40
8910;DHT22;4490;49.072;8.804;2022-09-09T03:43:25;16.70;97.70
8910;DHT22;4490;49.072;8.804;2022-09-09T03:45:51;16.70;97.80
8910;DHT22;4490;49.072;8.804;2022-09-09T03:48:18;16.70;97.80
8910;DHT22;4490;49.072;8.804;2022-09-09T03:50:50;16.70;97.80
8910;DHT22;4490;49.072;8.804;2022-09-09T03:53:18;16.70;97.80
8910;DHT22;4490;49.072;8.804;2022-09-09T03:55:49;16.70;97.90
8910;DHT22;4490;49.072;8.804;2022-09-09T03:58:16;16.70;97.90
8910;DHT22;4490;49.072;8.804;2022-09-09T04:00:52;16.60;98.00
8910;DHT22;4490;49.072;8.804;2022-09-09T04:03:18;16.60;98.00
8910;DHT22;4490;49.072;8.804;2022-09-09T04:05:43;16.60;98.00
8910;DHT22;4490;49.072;8.804;2022-09-09T04:08:09;16.60;98.00
8910;DHT22;4490;49.072;8.804;2022-09-09T04:10:35;16.70;98.00
8910;DHT22;4490;49.072;8.804;2022-09-09T04:13:03;16.70;97.90
8910;DHT22;4490;49.072;8.804;2022-09-09T04:15:29;16.70;97.70
8910;DHT22;4490;49.072;8.804;2022-09-09T04:17:55;16.70;97.50
8910;DHT22;4490;49.072;8.804;2022-09-09T04:20:21;16.70;97.30
8910;DHT22;4490;49.072;8.804;2022-09-09T04:22:47;16.70;97.30
8910;DHT22;4490;49.072;8.804;2022-09-09T04:25:13;16.60;97.30
8910;DHT22;4490;49.072;8.804;2022-09-09T04:27:40;16.60;97.10
8910;DHT22;4490;49.072;8.804;2022-09-09T04:30:07;16.70;97.00
8910;DHT22;4490;49.072;8.804;2022-09-09T04:32:35;16.60;96.80
8910;DHT22;4490;49.072;8.804;2022-09-09T04:35:02;16.70;96.70
8910;DHT22;4490;49.072;8.804;2022-09-09T04:37:28;16.70;96.50
8910;DHT22;4490;49.072;8.804;2022-09-09T04:39:54;16.70;96.50
8910;DHT22;4490;49.072;8.804;2022-09-09T04:42:19;16.70;96.40
8910;DHT22;4490;49.072;8.804;2022-09-09T04:44:45;16.60;96.30
8910;DHT22;4490;49.072;8.804;2022-09-09T04:47:11;16.70;96.30
8910;DHT22;4490;49.072;8.804;2022-09-09T04:49:37;16.70;96.30
8910;DHT22;4490;49.072;8.804;2022-09-09T04:52:04;16.70;96.30
8910;DHT22;4490;49.072;8.804;2022-09-09T04:54:30;16.70;96.20
8910;DHT22;4490;49.072;8.804;2022-09-09T04:56:55;16.60;96.20
8910;DHT22;4490;49.072;8.804;2022-09-09T04:59:21;16.70;96.10
8910;DHT22;4490;49.072;8.804;2022-09-09T05:01:48;16.60;95.90
8910;DHT22;4490;49.072;8.804;2022-09-09T05:04:15;16.70;95.70
8910;DHT22;4490;49.072;8.804;2022-09-09T05:06:41;16.70;95.60
8910;DHT22;4490;49.072;8.804;2022-09-09T05:09:08;16.70;95.50
8910;DHT22;4490;49.072;8.804;2022-09-09T05:11:33;16.70;95.30
8910;DHT22;4490;49.072;8.804;2022-09-09T05:14:02;16.70;95.30
8910;DHT22;4490;49.072;8.804;2022-09-09T05:16:28;16.70;95.20
8910;DHT22;4490;49.072;8.804;2022-09-09T05:18:54;16.70;95.20
8910;DHT22;4490;49.072;8.804;2022-09-09T05:21:21;16.70;95.20
8910;DHT22;4490;49.072;8.804;2022-09-09T05:23:48;16.70;95.20
8910;DHT22;4490;49.072;8.804;2022-09-09T05:26:19;16.70;95.10
8910;DHT22;4490;49.072;8.804;2022-09-09T05:28:45;16.70;95.10
8910;DHT22;4490;49.072;8.804;2022-09-09T05:31:12;16.70;95.00
8910;DHT22;4490;49.072;8.804;2022-09-09T05:33:40;16.70;94.90
8910;DHT22;4490;49.072;8.804;2022-09-09T05:36:14;16.70;94.80
8910;DHT22;4490;49.072;8.804;2022-09-09T05:38:41;16.80;94.70
8910;DHT22;4490;49.072;8.804;2022-09-09T05:41:07;16.80;94.50
8910;DHT22;4490;49.072;8.804;2022-09-09T05:43:33;16.80;94.40
8910;DHT22;4490;49.072;8.804;2022-09-09T05:46:05;16.80;94.30
8910;DHT22;4490;49.072;8.804;2022-09-09T05:48:32;16.80;94.40
8910;DHT22;4490;49.072;8.804;2022-09-09T05:50:59;16.80;94.30
8910;DHT22;4490;49.072;8.804;2022-09-09T05:53:28;16.80;94.20
8910;DHT22;4490;49.072;8.804;2022-09-09T05:56:06;16.80;94.10
8910;DHT22;4490;49.072;8.804;2022-09-09T05:58:33;16.90;94.00
8910;DHT22;4490;49.072;8.804;2022-09-09T06:03:34;17.00;93.60
8910;DHT22;4490;49.072;8.804;2022-09-09T06:06:01;17.00;93.60
8910;DHT22;4490;49.072;8.804;2022-09-09T06:08:27;17.00;93.40
8910;DHT22;4490;49.072;8.804;2022-09-09T06:10:53;17.00;93.30
8910;DHT22;4490;49.072;8.804;2022-09-09T06:13:19;17.10;93.20
8910;DHT22;4490;49.072;8.804;2022-09-09T06:15:51;17.10;93.00
8910;DHT22;4490;49.072;8.804;2022-09-09T06:18:18;17.10;92.90
8910;DHT22;4490;49.072;8.804;2022-09-09T06:20:59;17.10;92.80
8910;DHT22;4490;49.072;8.804;2022-09-09T06:23:26;17.20;92.70
8910;DHT22;4490;49.072;8.804;2022-09-09T06:26:09;17.20;92.60
8910;DHT22;4490;49.072;8.804;2022-09-09T06:28:36;17.20;92.50
8910;DHT22;4490;49.072;8.804;2022-09-09T06:31:04;17.20;92.40
8910;DHT22;4490;49.072;8.804;2022-09-09T06:33:34;17.20;92.50
8910;DHT22;4490;49.072;8.804;2022-09-09T06:36:01;17.30;92.60
8910;DHT22;4490;49.072;8.804;2022-09-09T06:38:27;17.40;92.70
8910;DHT22;4490;49.072;8.804;2022-09-09T06:40:58;17.60;92.90
8910;DHT22;4490;49.072;8.804;2022-09-09T06:43:25;17.80;92.30
8910;DHT22;4490;49.072;8.804;2022-09-09T06:48:24;18.10;91.50
8910;DHT22;4490;49.072;8.804;2022-09-09T06:51:00;18.20;91.30
8910;DHT22;4490;49.072;8.804;2022-09-09T06:53:26;18.40;91.10
8910;DHT22;4490;49.072;8.804;2022-09-09T06:55:52;18.50;90.50
8910;DHT22;4490;49.072;8.804;2022-09-09T06:58:18;18.60;90.10
8910;DHT22;4490;49.072;8.804;2022-09-09T07:00:44;18.60;89.50
8910;DHT22;4490;49.072;8.804;2022-09-09T07:03:10;18.70;89.10
8910;DHT22;4490;49.072;8.804;2022-09-09T07:05:36;18.70;88.90
8910;DHT22;4490;49.072;8.804;2022-09-09T07:08:02;18.70;88.40
8910;DHT22;4490;49.072;8.804;2022-09-09T07:10:28;18.70;88.10
8910;DHT22;4490;49.072;8.804;2022-09-09T07:12:53;18.70;88.20
8910;DHT22;4490;49.072;8.804;2022-09-09T07:15:20;18.80;89.00
8910;DHT22;4490;49.072;8.804;2022-09-09T07:17:46;19.00;88.50
8910;DHT22;4490;49.072;8.804;2022-09-09T07:20:13;19.00;88.00
8910;DHT22;4490;49.072;8.804;2022-09-09T07:22:40;19.00;87.50
8910;DHT22;4490;49.072;8.804;2022-09-09T07:25:07;19.10;87.30
8910;DHT22;4490;49.072;8.804;2022-09-09T07:27:33;19.10;87.30
8910;DHT22;4490;49.072;8.804;2022-09-09T07:29:59;19.10;88.10
8910;DHT22;4490;49.072;8.804;2022-09-09T07:32:24;19.20;88.70
8910;DHT22;4490;49.072;8.804;2022-09-09T07:34:55;19.40;88.70
8910;DHT22;4490;49.072;8.804;2022-09-09T07:37:23;19.60;88.60
8910;DHT22;4490;49.072;8.804;2022-09-09T07:39:49;19.70;88.60
8910;DHT22;4490;49.072;8.804;2022-09-09T07:42:16;19.90;88.00
8910;DHT22;4490;49.072;8.804;2022-09-09T07:44:42;20.10;87.80
8910;DHT22;4490;49.072;8.804;2022-09-09T07:47:07;20.40;87.20
8910;DHT22;4490;49.072;8.804;2022-09-09T07:49:33;20.70;86.30
8910;DHT22;4490;49.072;8.804;2022-09-09T07:51:59;20.90;84.20
8910;DHT22;4490;49.072;8.804;2022-09-09T07:54:25;21.10;82.60
8910;DHT22;4490;49.072;8.804;2022-09-09T07:56:52;21.20;81.40
8910;DHT22;4490;49.072;8.804;2022-09-09T07:59:19;21.20;80.80
8910;DHT22;4490;49.072;8.804;2022-09-09T08:01:47;21.20;80.60
8910;DHT22;4490;49.072;8.804;2022-09-09T08:04:16;21.20;80.30
8910;DHT22;4490;49.072;8.804;2022-09-09T08:06:48;21.10;79.70
8910;DHT22;4490;49.072;8.804;2022-09-09T08:09:15;21.10;79.80
8910;DHT22;4490;49.072;8.804;2022-09-09T08:11:42;21.10;80.40
8910;DHT22;4490;49.072;8.804;2022-09-09T08:14:09;21.20;81.30
8910;DHT22;4490;49.072;8.804;2022-09-09T08:16:38;21.30;82.10
8910;DHT22;4490;49.072;8.804;2022-09-09T08:19:04;21.50;81.90
8910;DHT22;4490;49.072;8.804;2022-09-09T08:21:32;21.70;81.60
8910;DHT22;4490;49.072;8.804;2022-09-09T08:24:00;21.80;81.70
8910;DHT22;4490;49.072;8.804;2022-09-09T08:26:28;22.00;80.20
8910;DHT22;4490;49.072;8.804;2022-09-09T08:28:56;22.10;79.50
8910;DHT22;4490;49.072;8.804;2022-09-09T08:31:56;22.30;78.50
8910;DHT22;4490;49.072;8.804;2022-09-09T08:34:15;22.50;78.10
8910;DHT22;4490;49.072;8.804;2022-09-09T08:36:43;22.70;76.40
8910;DHT22;4490;49.072;8.804;2022-09-09T08:39:11;22.80;74.70
8910;DHT22;4490;49.072;8.804;2022-09-09T08:50:38;23.30;69.80
8910;DHT22;4490;49.072;8.804;2022-09-09T08:53:10;23.50;69.40
8910;DHT22;4490;49.072;8.804;2022-09-09T08:55:49;23.70;69.60
8910;DHT22;4490;49.072;8.804;2022-09-09T08:58:27;23.80;66.90
8910;DHT22;4490;49.072;8.804;2022-09-09T09:08:53;24.40;66.00
8910;DHT22;4490;49.072;8.804;2022-09-09T09:11:22;24.20;66.00
8910;DHT22;4490;49.072;8.804;2022-09-09T09:13:59;23.90;66.20
8910;DHT22;4490;49.072;8.804;2022-09-09T09:16:32;23.60;67.50
8910;DHT22;4490;49.072;8.804;2022-09-09T09:19:00;23.20;69.00
8910;DHT22;4490;49.072;8.804;2022-09-09T09:21:36;22.80;70.10
8910;DHT22;4490;49.072;8.804;2022-09-09T09:24:07;22.60;70.70
8910;DHT22;4490;49.072;8.804;2022-09-09T09:26:43;22.50;72.30
8910;DHT22;4490;49.072;8.804;2022-09-09T09:29:15;22.50;72.10
8910;DHT22;4490;49.072;8.804;2022-09-09T09:31:51;22.70;71.60
8910;DHT22;4490;49.072;8.804;2022-09-09T09:34:17;23.00;71.20
8910;DHT22;4490;49.072;8.804;2022-09-09T09:36:44;23.20;71.20
8910;DHT22;4490;49.072;8.804;2022-09-09T09:39:27;23.50;71.40
8910;DHT22;4490;49.072;8.804;2022-09-09T09:41:53;23.70;70.70
8910;DHT22;4490;49.072;8.804;2022-09-09T09:46:51;23.60;69.70
8910;DHT22;4490;49.072;8.804;2022-09-09T09:49:17;23.30;69.90
8910;DHT22;4490;49.072;8.804;2022-09-09T09:51:43;23.10;69.50
8910;DHT22;4490;49.072;8.804;2022-09-09T09:54:38;22.90;70.00
8910;DHT22;4490;49.072;8.804;2022-09-09T09:57:13;23.00;69.80
8910;DHT22;4490;49.072;8.804;2022-09-09T09:59:39;23.30;67.60
8910;DHT22;4490;49.072;8.804;2022-09-09T10:02:20;23.40;67.50
8910;DHT22;4490;49.072;8.804;2022-09-09T10:05:04;23.40;67.30
8910;DHT22;4490;49.072;8.804;2022-09-09T10:07:30;23.60;67.60
8910;DHT22;4490;49.072;8.804;2022-09-09T10:09:57;23.80;67.10
8910;DHT22;4490;49.072;8.804;2022-09-09T10:13:07;24.00;67.60
8910;DHT22;4490;49.072;8.804;2022-09-09T10:19:09;24.80;65.20
8910;DHT22;4490;49.072;8.804;2022-09-09T10:22:04;25.20;62.60
8910;DHT22;4490;49.072;8.804;2022-09-09T10:30:19;25.90;59.70
8910;DHT22;4490;49.072;8.804;2022-09-09T10:46:41;26.30;58.50
8910;DHT22;4490;49.072;8.804;2022-09-09T10:55:17;26.50;56.90
8910;DHT22;4490;49.072;8.804;2022-09-09T10:57:45;26.70;57.10
8910;DHT22;4490;49.072;8.804;2022-09-09T11:02:41;26.90;55.10
8910;DHT22;4490;49.072;8.804;2022-09-09T11:05:25;26.70;55.50
8910;DHT22;4490;49.072;8.804;2022-09-09T11:08:01;26.70;55.40
8910;DHT22;4490;49.072;8.804;2022-09-09T11:10:49;26.60;56.30
8910;DHT22;4490;49.072;8.804;2022-09-09T11:16:36;26.10;56.70
8910;DHT22;4490;49.072;8.804;2022-09-09T11:19:30;25.90;56.60
8910;DHT22;4490;49.072;8.804;2022-09-09T11:25:34;25.50;57.50
8910;DHT22;4490;49.072;8.804;2022-09-09T11:41:50;25.40;55.50
8910;DHT22;4490;49.072;8.804;2022-09-09T11:44:20;25.20;56.10
8910;DHT22;4490;49.072;8.804;2022-09-09T11:46:51;25.00;56.70
8910;DHT22;4490;49.072;8.804;2022-09-09T11:49:29;24.90;57.60
8910;DHT22;4490;49.072;8.804;2022-09-09T11:51:57;24.80;58.00
8910;DHT22;4490;49.072;8.804;2022-09-09T11:54:32;24.70;58.10
8910;DHT22;4490;49.072;8.804;2022-09-09T11:57:31;24.60;58.20
8910;DHT22;4490;49.072;8.804;2022-09-09T11:59:58;24.50;58.00
8910;DHT22;4490;49.072;8.804;2022-09-09T12:02:26;24.40;58.50
8910;DHT22;4490;49.072;8.804;2022-09-09T12:05:07;24.40;59.00
8910;DHT22;4490;49.072;8.804;2022-09-09T12:07:45;24.50;58.80
8910;DHT22;4490;49.072;8.804;2022-09-09T12:10:27;24.70;58.60
8910;DHT22;4490;49.072;8.804;2022-09-09T12:12:54;25.10;58.30
8910;DHT22;4490;49.072;8.804;2022-09-09T12:15:26;25.50;58.00
8910;DHT22;4490;49.072;8.804;2022-09-09T12:17:56;25.80;57.00
8910;DHT22;4490;49.072;8.804;2022-09-09T12:25:54;27.10;52.00
8910;DHT22;4490;49.072;8.804;2022-09-09T12:31:06;27.80;50.90
8910;DHT22;4490;49.072;8.804;2022-09-09T12:33:39;28.10;51.30
8910;DHT22;4490;49.072;8.804;2022-09-09T12:36:13;28.30;50.60
8910;DHT22;4490;49.072;8.804;2022-09-09T12:38:41;28.50;50.40
8910;DHT22;4490;49.072;8.804;2022-09-09T12:41:27;28.50;49.80
8910;DHT22;4490;49.072;8.804;2022-09-09T12:44:09;28.80;50.10
8910;DHT22;4490;49.072;8.804;2022-09-09T12:46:44;29.00;49.10
8910;DHT22;4490;49.072;8.804;2022-09-09T12:49:33;29.20;50.20
8910;DHT22;4490;49.072;8.804;2022-09-09T12:52:09;29.20;49.10
8910;DHT22;4490;49.072;8.804;2022-09-09T12:54:44;29.00;49.10
8910;DHT22;4490;49.072;8.804;2022-09-09T12:57:13;29.00;49.00
8910;DHT22;4490;49.072;8.804;2022-09-09T12:59:41;29.00;49.50
8910;DHT22;4490;49.072;8.804;2022-09-09T13:02:20;29.10;49.40
8910;DHT22;4490;49.072;8.804;2022-09-09T13:04:46;29.10;48.70
8910;DHT22;4490;49.072;8.804;2022-09-09T13:07:13;29.00;48.80
8910;DHT22;4490;49.072;8.804;2022-09-09T13:09:41;28.70;48.80
8910;DHT22;4490;49.072;8.804;2022-09-09T13:12:21;28.40;49.40
8910;DHT22;4490;49.072;8.804;2022-09-09T13:14:50;27.90;49.00
8910;DHT22;4490;49.072;8.804;2022-09-09T13:17:26;27.50;49.80
8910;DHT22;4490;49.072;8.804;2022-09-09T13:19:54;27.10;50.10
8910;DHT22;4490;49.072;8.804;2022-09-09T13:22:37;26.60;50.60
8910;DHT22;4490;49.072;8.804;2022-09-09T13:25:27;26.30;51.40
8910;DHT22;4490;49.072;8.804;2022-09-09T13:28:05;26.00;52.20
8910;DHT22;4490;49.072;8.804;2022-09-09T13:30:36;25.90;52.70
8910;DHT22;4490;49.072;8.804;2022-09-09T13:35:56;25.60;52.40
8910;DHT22;4490;49.072;8.804;2022-09-09T13:38:23;25.50;50.70
8910;DHT22;4490;49.072;8.804;2022-09-09T13:41:08;25.30;51.20
8910;DHT22;4490;49.072;8.804;2022-09-09T13:43:45;25.20;51.60
8910;DHT22;4490;49.072;8.804;2022-09-09T13:48:57;24.90;52.80
8910;DHT22;4490;49.072;8.804;2022-09-09T13:51:37;24.90;53.70
8910;DHT22;4490;49.072;8.804;2022-09-09T13:54:08;24.90;54.60
8910;DHT22;4490;49.072;8.804;2022-09-09T13:56:35;25.10;55.00
8910;DHT22;4490;49.072;8.804;2022-09-09T13:59:02;25.40;55.10
8910;DHT22;4490;49.072;8.804;2022-09-09T14:01:28;25.60;54.70
8910;DHT22;4490;49.072;8.804;2022-09-09T14:03:54;25.80;55.40
8910;DHT22;4490;49.072;8.804;2022-09-09T14:06:20;25.80;56.00
8910;DHT22;4490;49.072;8.804;2022-09-09T14:08:48;25.80;56.40
8910;DHT22;4490;49.072;8.804;2022-09-09T14:11:14;25.80;56.20
8910;DHT22;4490;49.072;8.804;2022-09-09T14:13:40;26.00;56.20
8910;DHT22;4490;49.072;8.804;2022-09-09T14:16:06;26.10;56.60
8910;DHT22;4490;49.072;8.804;2022-09-09T14:18:31;26.30;57.50
8910;DHT22;4490;49.072;8.804;2022-09-09T14:20:57;26.50;56.60
8910;DHT22;4490;49.072;8.804;2022-09-09T14:23:24;26.60;56.30
8910;DHT22;4490;49.072;8.804;2022-09-09T14:25:49;26.80;55.30
8910;DHT22;4490;49.072;8.804;2022-09-09T14:28:16;26.90;54.40
8910;DHT22;4490;49.072;8.804;2022-09-09T14:30:43;26.90;53.70
8910;DHT22;4490;49.072;8.804;2022-09-09T14:33:11;26.80;53.50
8910;DHT22;4490;49.072;8.804;2022-09-09T14:35:37;26.60;53.90
8910;DHT22;4490;49.072;8.804;2022-09-09T14:38:04;26.30;54.10
8910;DHT22;4490;49.072;8.804;2022-09-09T14:40:30;26.00;54.60
8910;DHT22;4490;49.072;8.804;2022-09-09T14:42:55;25.90;55.20
8910;DHT22;4490;49.072;8.804;2022-09-09T14:45:22;25.80;55.70
8910;DHT22;4490;49.072;8.804;2022-09-09T14:47:50;25.80;56.10
8910;DHT22;4490;49.072;8.804;2022-09-09T14:50:17;25.90;56.20
8910;DHT22;4490;49.072;8.804;2022-09-09T14:52:43;25.90;56.30
8910;DHT22;4490;49.072;8.804;2022-09-09T14:55:09;26.00;56.50
8910;DHT22;4490;49.072;8.804;2022-09-09T14:57:35;26.10;56.50
8910;DHT22;4490;49.072;8.804;2022-09-09T15:00:02;26.00;56.50
8910;DHT22;4490;49.072;8.804;2022-09-09T15:02:29;25.90;56.70
8910;DHT22;4490;49.072;8.804;2022-09-09T15:04:55;25.70;57.00
8910;DHT22;4490;49.072;8.804;2022-09-09T15:07:26;25.50;57.20
8910;DHT22;4490;49.072;8.804;2022-09-09T15:09:54;25.30;57.60
8910;DHT22;4490;49.072;8.804;2022-09-09T15:12:19;25.10;58.00
8910;DHT22;4490;49.072;8.804;2022-09-09T15:14:46;24.80;58.40
8910;DHT22;4490;49.072;8.804;2022-09-09T15:17:12;24.50;59.20
8910;DHT22;4490;49.072;8.804;2022-09-09T15:19:38;24.30;59.70
8910;DHT22;4490;49.072;8.804;2022-09-09T15:22:05;24.10;60.10
8910;DHT22;4490;49.072;8.804;2022-09-09T15:24:33;23.90;60.80
8910;DHT22;4490;49.072;8.804;2022-09-09T15:27:00;23.70;61.10
8910;DHT22;4490;49.072;8.804;2022-09-09T15:29:26;23.60;61.40
8910;DHT22;4490;49.072;8.804;2022-09-09T15:31:55;23.50;61.40
8910;DHT22;4490;49.072;8.804;2022-09-09T15:34:21;23.40;61.90
8910;DHT22;4490;49.072;8.804;2022-09-09T15:36:47;23.30;62.10
8910;DHT22;4490;49.072;8.804;2022-09-09T15:39:17;23.10;62.50
8910;DHT22;4490;49.072;8.804;2022-09-09T15:41:44;23.00;63.30
8910;DHT22;4490;49.072;8.804;2022-09-09T15:44:11;22.80;64.10
8910;DHT22;4490;49.072;8.804;2022-09-09T15:46:49;22.60;64.80
8910;DHT22;4490;49.072;8.804;2022-09-09T15:49:21;22.40;65.30
8910;DHT22;4490;49.072;8.804;2022-09-09T15:51:56;22.20;65.80
8910;DHT22;4490;49.072;8.804;2022-09-09T15:54:23;22.00;66.20
8910;DHT22;4490;49.072;8.804;2022-09-09T15:56:58;21.90;66.00
8910;DHT22;4490;49.072;8.804;2022-09-09T15:59:25;21.80;66.40
8910;DHT22;4490;49.072;8.804;2022-09-09T16:01:51;21.70;66.50
8910;DHT22;4490;49.072;8.804;2022-09-09T16:04:18;21.60;66.40
8910;DHT22;4490;49.072;8.804;2022-09-09T16:07:03;21.50;66.30
8910;DHT22;4490;49.072;8.804;2022-09-09T16:09:29;21.50;66.80
8910;DHT22;4490;49.072;8.804;2022-09-09T16:11:57;21.50;65.50
8910;DHT22;4490;49.072;8.804;2022-09-09T16:14:24;21.60;65.30
8910;DHT22;4490;49.072;8.804;2022-09-09T16:16:51;21.50;65.30
8910;DHT22;4490;49.072;8.804;2022-09-09T16:19:16;21.50;65.50
8910;DHT22;4490;49.072;8.804;2022-09-09T16:21:44;21.50;65.60
8910;DHT22;4490;49.072;8.804;2022-09-09T16:24:13;21.50;66.10
8910;DHT22;4490;49.072;8.804;2022-09-09T16:26:42;21.50;66.50
8910;DHT22;4490;49.072;8.804;2022-09-09T16:29:10;21.60;67.10
8910;DHT22;4490;49.072;8.804;2022-09-09T16:31:36;21.50;67.40
8910;DHT22;4490;49.072;8.804;2022-09-09T16:34:03;21.40;67.70
8910;DHT22;4490;49.072;8.804;2022-09-09T16:36:31;21.40;67.70
8910;DHT22;4490;49.072;8.804;2022-09-09T16:38:59;21.40;68.10
8910;DHT22;4490;49.072;8.804;2022-09-09T16:41:26;21.40;68.10
8910;DHT22;4490;49.072;8.804;2022-09-09T16:43:54;21.30;68.00
8910;DHT22;4490;49.072;8.804;2022-09-09T16:46:21;21.30;68.00
8910;DHT22;4490;49.072;8.804;2022-09-09T16:48:48;21.30;68.00
8910;DHT22;4490;49.072;8.804;2022-09-09T16:51:22;21.20;67.90
8910;DHT22;4490;49.072;8.804;2022-09-09T16:53:50;21.20;67.90
8910;DHT22;4490;49.072;8.804;2022-09-09T16:56:18;21.20;67.90
8910;DHT22;4490;49.072;8.804;2022-09-09T16:58:55;21.10;67.90
8910;DHT22;4490;49.072;8.804;2022-09-09T17:01:25;21.10;68.10
8910;DHT22;4490;49.072;8.804;2022-09-09T17:03:55;21.00;68.10
8910;DHT22;4490;49.072;8.804;2022-09-09T17:06:21;21.00;68.10
8910;DHT22;4490;49.072;8.804;2022-09-09T17:08:53;21.00;68.10
8910;DHT22;4490;49.072;8.804;2022-09-09T17:11:19;21.00;68.00
8910;DHT22;4490;49.072;8.804;2022-09-09T17:13:46;20.90;68.00
8910;DHT22;4490;49.072;8.804;2022-09-09T17:16:14;20.90;67.70
8910;DHT22;4490;49.072;8.804;2022-09-09T17:18:40;20.80;67.40
8910;DHT22;4490;49.072;8.804;2022-09-09T17:21:11;20.80;67.40
8910;DHT22;4490;49.072;8.804;2022-09-09T17:23:39;20.70;67.40
8910;DHT22;4490;49.072;8.804;2022-09-09T17:26:06;20.60;67.20
8910;DHT22;4490;49.072;8.804;2022-09-09T17:28:37;20.50;67.20
8910;DHT22;4490;49.072;8.804;2022-09-09T17:31:05;20.50;67.30
8910;DHT22;4490;49.072;8.804;2022-09-09T17:33:36;20.40;67.50
8910;DHT22;4490;49.072;8.804;2022-09-09T17:36:08;20.30;67.60
8910;DHT22;4490;49.072;8.804;2022-09-09T17:38:34;20.40;67.70
8910;DHT22;4490;49.072;8.804;2022-09-09T17:41:02;20.30;67.60
8910;DHT22;4490;49.072;8.804;2022-09-09T17:43:28;20.30;67.80
8910;DHT22;4490;49.072;8.804;2022-09-09T17:45:54;20.30;67.80
8910;DHT22;4490;49.072;8.804;2022-09-09T17:48:19;20.30;68.20
8910;DHT22;4490;49.072;8.804;2022-09-09T17:50:45;20.30;68.30
8910;DHT22;4490;49.072;8.804;2022-09-09T17:53:11;20.20;68.30
8910;DHT22;4490;49.072;8.804;2022-09-09T17:55:37;20.20;68.30
8910;DHT22;4490;49.072;8.804;2022-09-09T17:58:03;20.20;68.30
8910;DHT22;4490;49.072;8.804;2022-09-09T18:00:29;20.20;69.20
8910;DHT22;4490;49.072;8.804;2022-09-09T18:02:55;20.20;68.50
8910;DHT22;4490;49.072;8.804;2022-09-09T18:05:21;20.20;68.70
8910;DHT22;4490;49.072;8.804;2022-09-09T18:07:47;20.10;68.70
8910;DHT22;4490;49.072;8.804;2022-09-09T18:10:13;20.00;69.00
8910;DHT22;4490;49.072;8.804;2022-09-09T18:12:39;20.00;69.20
8910;DHT22;4490;49.072;8.804;2022-09-09T18:15:06;20.00;69.60
8910;DHT22;4490;49.072;8.804;2022-09-09T18:17:32;19.90;69.80
8910;DHT22;4490;49.072;8.804;2022-09-09T18:19:58;19.90;70.00
8910;DHT22;4490;49.072;8.804;2022-09-09T18:22:23;19.90;70.30
8910;DHT22;4490;49.072;8.804;2022-09-09T18:24:50;19.80;70.50
8910;DHT22;4490;49.072;8.804;2022-09-09T18:27:16;19.70;70.70
8910;DHT22;4490;49.072;8.804;2022-09-09T18:29:41;19.70;70.90
8910;DHT22;4490;49.072;8.804;2022-09-09T18:32:08;19.60;71.20